Time;durP1;ratioP1;P1;durP2;ratioP2;P2;SDS_P1;SDS_P2;PMS_P1;PMS_P2;Temp;Humidity;BMP_temperature;BMP_pressure;BME280_temperature;BME280_humidity;BME280_pressure;Samples;Min_cycle;Max_cycle;Signal;HPM_P1;HPM_P2
2023/05/18 00:01:59;;;;;;;5.43;1.90;;;12.10;98.50;;;;;;4989494;28;20245;-72
2023/05/18 00:04:27;;;;;;;3.53;1.70;;;12.00;98.40;;;;;;4989469;28;20304;-71
2023/05/18 00:06:57;;;;;;;6.63;2.20;;;12.00;98.50;;;;;;4989036;28;20206;-71
2023/05/18 00:09:24;;;;;;;4.53;1.73;;;12.00;98.60;;;;;;4988895;28;20245;-71
2023/05/18 00:11:51;;;;;;;5.33;1.70;;;12.00;98.60;;;;;;4989241;28;20684;-71
2023/05/18 00:14:18;;;;;;;6.83;1.60;;;12.00;98.60;;;;;;4988609;28;20241;-71
2023/05/18 00:16:46;;;;;;;5.37;1.70;;;12.00;98.50;;;;;;4988181;28;20213;-71
2023/05/18 00:19:14;;;;;;;4.80;1.83;;;12.00;98.60;;;;;;4969860;28;20210;-71
2023/05/18 00:21:41;;;;;;;3.53;1.60;;;12.00;98.80;;;;;;4969210;28;20211;-71
2023/05/18 00:24:10;;;;;;;4.10;1.93;;;12.00;98.80;;;;;;4969418;28;20577;-71
2023/05/18 00:26:38;;;;;;;4.93;2.00;;;12.00;98.90;;;;;;4969378;28;20221;-71
2023/05/18 00:29:05;;;;;;;3.37;1.40;;;12.00;99.00;;;;;;4985189;28;20210;-71
2023/05/18 00:31:41;;;;;;;6.23;1.90;;;11.90;99.10;;;;;;4972255;28;20286;-71
2023/05/18 00:34:09;;;;;;;6.23;1.80;;;11.90;99.10;;;;;;4988730;28;20675;-71
2023/05/18 00:36:39;;;;;;;4.10;1.73;;;11.90;99.20;;;;;;4988366;28;20218;-71
2023/05/18 00:39:07;;;;;;;2.40;1.87;;;11.80;99.30;;;;;;4988563;28;20210;-71
2023/05/18 00:41:36;;;;;;;4.50;1.83;;;11.80;99.20;;;;;;4988590;28;20213;-71
2023/05/18 00:44:03;;;;;;;3.60;1.93;;;11.70;99.30;;;;;;4988688;28;20234;-71
2023/05/18 00:46:30;;;;;;;3.83;2.20;;;11.60;99.40;;;;;;4988156;28;20214;-71
2023/05/18 00:49:00;;;;;;;3.57;1.77;;;11.60;99.60;;;;;;4988380;28;20226;-71
2023/05/18 00:51:27;;;;;;;6.83;1.70;;;11.60;99.70;;;;;;4988183;28;20234;-71
2023/05/18 00:53:56;;;;;;;4.13;1.73;;;11.50;99.60;;;;;;4987877;28;20293;-71
2023/05/18 00:56:23;;;;;;;4.83;1.90;;;11.50;99.60;;;;;;4988080;28;20776;-70
2023/05/18 00:58:54;;;;;;;6.70;2.17;;;11.50;99.70;;;;;;4988038;28;20564;-70
2023/05/18 01:01:23;;;;;;;7.33;1.87;;;11.50;99.60;;;;;;4987744;28;20683;-70
2023/05/18 01:03:55;;;;;;;6.10;2.40;;;11.60;99.70;;;;;;4988175;28;20304;-71
2023/05/18 01:06:24;;;;;;;3.80;2.10;;;11.50;99.70;;;;;;4987871;28;20207;-71
2023/05/18 01:08:51;;;;;;;4.20;2.03;;;11.60;99.70;;;;;;4988072;28;20237;-70
2023/05/18 01:11:24;;;;;;;6.57;2.20;;;11.50;99.80;;;;;;4987460;28;20215;-71
2023/05/18 01:13:58;;;;;;;6.40;2.10;;;11.50;99.80;;;;;;4987199;28;20649;-71
2023/05/18 01:16:33;;;;;;;6.60;2.20;;;11.50;99.80;;;;;;4988460;28;20328;-71
2023/05/18 01:19:15;;;;;;;4.37;1.77;;;11.60;99.80;;;;;;4977556;28;20304;-71
2023/05/18 01:21:56;;;;;;;4.87;2.40;;;11.50;99.70;;;;;;4973681;28;20194;-71
2023/05/18 01:24:32;;;;;;;8.57;2.53;;;11.30;99.90;;;;;;4988034;28;20213;-71
2023/05/18 01:27:00;;;;;;;4.20;2.20;;;11.10;99.90;;;;;;4987693;28;20198;-71
2023/05/18 01:29:29;;;;;;;5.07;2.30;;;11.10;99.90;;;;;;4987559;28;20278;-70
2023/05/18 01:31:57;;;;;;;3.97;2.43;;;11.00;99.90;;;;;;4987731;28;20210;-70
2023/05/18 01:34:24;;;;;;;4.50;2.30;;;11.00;99.90;;;;;;4987883;28;20210;-70
2023/05/18 01:36:51;;;;;;;5.20;1.97;;;11.00;99.90;;;;;;4987774;28;20210;-71
2023/05/18 01:39:18;;;;;;;4.27;2.40;;;10.90;99.90;;;;;;4987643;28;20698;-73
2023/05/18 01:41:52;;;;;;;5.03;2.93;;;10.90;99.90;;;;;;4988154;28;20220;-71
2023/05/18 01:44:24;;;;;;;5.30;2.23;;;10.80;99.90;;;;;;4987472;28;20281;-71
2023/05/18 01:46:57;;;;;;;8.17;2.47;;;10.80;99.90;;;;;;4987790;28;20226;-70
2023/05/18 01:49:32;;;;;;;5.67;2.43;;;10.70;99.90;;;;;;4987224;28;20777;-70
2023/05/18 01:52:03;;;;;;;5.63;2.53;;;10.70;99.90;;;;;;4987245;28;20287;-71
2023/05/18 01:54:32;;;;;;;4.70;2.23;;;10.70;99.90;;;;;;4987629;28;20256;-70
2023/05/18 01:56:59;;;;;;;5.90;2.27;;;10.60;99.90;;;;;;4987600;28;20302;-71
2023/05/18 01:59:28;;;;;;;5.63;2.37;;;10.70;99.90;;;;;;4986798;28;20237;-70
2023/05/18 02:01:59;;;;;;;5.20;2.10;;;10.60;99.90;;;;;;4987137;28;20298;-70
2023/05/18 02:04:26;;;;;;;5.73;2.20;;;10.70;99.90;;;;;;4986924;28;20719;-70
2023/05/18 02:06:53;;;;;;;4.73;2.20;;;10.60;99.90;;;;;;4987379;28;20499;-71
2023/05/18 02:09:20;;;;;;;3.53;2.20;;;10.60;99.90;;;;;;4986749;28;20337;-70
2023/05/18 02:11:47;;;;;;;5.90;3.00;;;10.50;99.90;;;;;;4986827;28;20205;-71
2023/05/18 02:14:14;;;;;;;7.47;2.43;;;10.50;99.90;;;;;;4984477;28;20705;-71
2023/05/18 02:16:46;;;;;;;3.60;1.87;;;10.30;99.90;;;;;;4967654;28;20241;-70
2023/05/18 02:19:14;;;;;;;6.83;2.30;;;10.20;99.90;;;;;;4970822;28;20680;-71
2023/05/18 02:21:42;;;;;;;5.27;2.33;;;10.10;99.90;;;;;;4986826;28;20210;-71
2023/05/18 02:24:09;;;;;;;5.40;2.50;;;10.10;99.90;;;;;;4987097;28;20674;-71
2023/05/18 02:26:37;;;;;;;4.70;2.30;;;10.00;99.90;;;;;;4987194;28;20301;-71
2023/05/18 02:29:05;;;;;;;4.40;2.10;;;9.90;99.90;;;;;;4986628;28;20210;-71
2023/05/18 02:31:32;;;;;;;6.80;2.20;;;9.90;99.90;;;;;;4986737;28;20249;-70
2023/05/18 02:34:00;;;;;;;5.93;2.47;;;9.90;99.90;;;;;;4986844;28;20292;-71
2023/05/18 02:36:35;;;;;;;3.00;2.07;;;9.90;99.90;;;;;;4986404;28;20236;-73
2023/05/18 02:39:03;;;;;;;3.93;2.50;;;9.90;99.90;;;;;;4985882;28;20620;-73
2023/05/18 02:41:30;;;;;;;3.90;2.10;;;9.80;99.90;;;;;;4986714;28;20210;-74
2023/05/18 02:43:57;;;;;;;4.63;2.53;;;9.90;99.90;;;;;;4986632;28;21032;-72
2023/05/18 02:46:24;;;;;;;3.63;2.23;;;9.80;99.90;;;;;;4986417;28;20305;-72
2023/05/18 02:48:51;;;;;;;4.60;2.20;;;9.80;99.90;;;;;;4986826;28;20214;-72
2023/05/18 02:51:20;;;;;;;4.00;2.40;;;9.70;99.90;;;;;;4986267;28;20325;-73
2023/05/18 02:53:47;;;;;;;5.67;2.20;;;9.70;99.90;;;;;;4986413;28;20589;-72
2023/05/18 02:56:16;;;;;;;3.07;2.40;;;9.70;99.90;;;;;;4986365;28;20241;-72
2023/05/18 02:58:43;;;;;;;3.37;2.07;;;9.70;99.90;;;;;;4986159;28;20748;-72
2023/05/18 03:01:11;;;;;;;4.77;2.00;;;9.70;99.90;;;;;;4986406;28;20301;-71
2023/05/18 03:03:38;;;;;;;3.13;2.03;;;9.80;99.90;;;;;;4986314;28;20218;-70
2023/05/18 03:06:07;;;;;;;5.27;2.23;;;9.70;99.90;;;;;;4986274;28;20238;-71
2023/05/18 03:08:35;;;;;;;5.43;2.43;;;9.70;99.90;;;;;;4986072;28;20250;-71
2023/05/18 03:11:03;;;;;;;5.33;2.10;;;9.70;99.90;;;;;;4985722;28;20220;-71
2023/05/18 03:13:30;;;;;;;4.27;2.50;;;9.70;99.90;;;;;;4986209;28;21014;-72
2023/05/18 03:15:57;;;;;;;5.63;2.67;;;9.70;99.90;;;;;;4986276;28;20324;-72
2023/05/18 03:18:24;;;;;;;3.80;2.53;;;9.70;99.90;;;;;;4986319;28;20301;-72
2023/05/18 03:20:52;;;;;;;5.03;2.30;;;9.70;99.90;;;;;;4986389;28;20210;-74
2023/05/18 03:23:19;;;;;;;3.83;2.10;;;9.60;99.90;;;;;;4986305;28;20210;-73
2023/05/18 03:25:53;;;;;;;5.43;2.27;;;9.60;99.90;;;;;;4986559;28;20292;-73
2023/05/18 03:28:20;;;;;;;7.17;2.40;;;9.60;99.90;;;;;;4986342;28;20203;-73
2023/05/18 03:30:47;;;;;;;7.27;1.97;;;9.60;99.90;;;;;;4986153;28;20693;-74
2023/05/18 03:33:14;;;;;;;4.93;2.30;;;9.60;99.90;;;;;;4986321;28;20302;-73
2023/05/18 03:35:41;;;;;;;2.33;2.03;;;9.60;99.90;;;;;;4986220;28;20655;-74
2023/05/18 03:38:08;;;;;;;5.80;2.10;;;9.60;99.90;;;;;;4986386;28;20210;-73
2023/05/18 03:40:35;;;;;;;2.40;2.03;;;9.60;99.90;;;;;;4985753;28;20272;-75
2023/05/18 03:43:03;;;;;;;3.60;2.03;;;9.60;99.90;;;;;;4986183;28;20665;-74
2023/05/18 03:45:30;;;;;;;5.87;2.17;;;9.50;99.90;;;;;;4986218;28;20214;-73
2023/05/18 03:47:57;;;;;;;2.10;1.90;;;9.60;99.90;;;;;;4985810;28;20265;-73
2023/05/18 03:50:24;;;;;;;2.90;1.93;;;9.50;99.90;;;;;;4987782;28;20245;-74
2023/05/18 03:52:52;;;;;;;4.60;2.37;;;9.60;99.90;;;;;;4989688;28;20301;-74
2023/05/18 03:55:20;;;;;;;3.77;2.03;;;9.60;99.90;;;;;;4989433;28;20225;-73
2023/05/18 03:57:47;;;;;;;5.43;2.10;;;9.60;99.90;;;;;;4989319;28;20207;-71
2023/05/18 04:00:16;;;;;;;3.70;2.23;;;9.50;99.90;;;;;;4989155;28;20759;-70
2023/05/18 04:02:42;;;;;;;3.30;1.97;;;9.50;99.90;;;;;;4989689;28;20297;-70
2023/05/18 04:05:10;;;;;;;4.10;1.87;;;9.50;99.90;;;;;;4989686;28;20301;-70
2023/05/18 04:07:42;;;;;;;4.77;2.30;;;9.50;99.90;;;;;;4989098;28;20300;-70
2023/05/18 04:10:10;;;;;;;4.73;2.20;;;9.40;99.90;;;;;;4987312;28;20229;-72
2023/05/18 04:12:38;;;;;;;4.00;2.00;;;9.50;99.90;;;;;;4989222;28;20225;-71
2023/05/18 04:15:05;;;;;;;4.43;2.20;;;9.50;99.90;;;;;;4989271;28;20289;-71
2023/05/18 04:17:34;;;;;;;4.23;1.83;;;9.40;99.90;;;;;;4988642;28;20315;-71
2023/05/18 04:20:10;;;;;;;4.83;2.00;;;9.40;99.90;;;;;;4988757;28;20673;-71
2023/05/18 04:22:45;;;;;;;2.43;1.53;;;9.40;99.90;;;;;;4988709;28;20716;-71
2023/05/18 04:25:12;;;;;;;3.37;1.77;;;9.50;99.90;;;;;;4989399;28;20202;-72
2023/05/18 04:27:40;;;;;;;2.47;1.97;;;9.60;99.90;;;;;;4989360;28;20221;-71
2023/05/18 04:30:09;;;;;;;5.07;2.20;;;9.70;99.90;;;;;;4989282;28;20198;-71
2023/05/18 04:32:41;;;;;;;4.63;2.13;;;9.70;99.90;;;;;;4988694;28;20727;-71
2023/05/18 04:35:09;;;;;;;5.23;2.30;;;9.70;99.90;;;;;;4989285;28;20202;-71
2023/05/18 04:37:39;;;;;;;4.60;1.60;;;9.70;99.90;;;;;;4988636;28;20321;-71
2023/05/18 04:40:11;;;;;;;5.40;2.60;;;9.70;99.90;;;;;;4988639;28;20584;-72
2023/05/18 04:42:44;;;;;;;5.53;2.13;;;9.70;99.90;;;;;;4989207;28;20496;-72
2023/05/18 04:45:15;;;;;;;3.03;1.77;;;9.70;99.90;;;;;;4988699;28;20914;-72
2023/05/18 04:47:45;;;;;;;3.10;1.87;;;9.70;99.90;;;;;;4989141;28;20195;-72
2023/05/18 04:50:15;;;;;;;9.33;2.13;;;9.70;99.90;;;;;;4988690;28;20676;-72
2023/05/18 04:52:46;;;;;;;4.33;1.80;;;9.60;99.90;;;;;;4989256;28;20297;-72
2023/05/18 04:55:13;;;;;;;5.40;1.93;;;9.70;99.90;;;;;;4988540;28;20610;-72
2023/05/18 04:57:41;;;;;;;4.70;1.70;;;9.70;99.90;;;;;;4988634;28;20344;-72
2023/05/18 05:00:09;;;;;;;6.37;2.60;;;9.60;99.90;;;;;;4988585;28;20214;-72
2023/05/18 05:02:38;;;;;;;6.53;2.33;;;9.60;99.90;;;;;;4983344;28;20720;-72
2023/05/18 05:05:07;;;;;;;3.83;1.90;;;9.70;99.90;;;;;;4988495;28;20846;-72
2023/05/18 05:07:34;;;;;;;7.87;2.23;;;9.70;99.90;;;;;;4988463;28;20254;-72
2023/05/18 05:10:01;;;;;;;18.23;2.63;;;9.80;99.90;;;;;;4983834;28;20749;-72
2023/05/18 05:12:28;;;;;;;7.33;2.00;;;9.90;99.90;;;;;;4982296;28;20209;-72
2023/05/18 05:14:56;;;;;;;8.53;2.17;;;9.90;99.90;;;;;;4988221;28;20269;-72
2023/05/18 05:17:24;;;;;;;6.13;2.10;;;9.90;99.90;;;;;;4987968;28;20277;-72
2023/05/18 05:19:50;;;;;;;4.07;1.90;;;10.00;99.90;;;;;;4987922;28;20244;-71
2023/05/18 05:22:19;;;;;;;7.00;2.10;;;10.00;99.90;;;;;;4971262;28;20207;-72
2023/05/18 05:24:46;;;;;;;5.07;1.93;;;10.10;99.90;;;;;;4968840;28;20211;-71
2023/05/18 05:27:13;;;;;;;13.30;2.77;;;10.10;99.90;;;;;;4968673;28;20214;-71
2023/05/18 05:29:40;;;;;;;6.47;1.97;;;10.20;99.90;;;;;;4974670;28;20383;-72
2023/05/18 05:32:07;;;;;;;7.67;2.30;;;10.20;99.90;;;;;;4987670;28;20656;-71
2023/05/18 05:34:34;;;;;;;4.93;1.93;;;10.20;99.90;;;;;;4987830;28;20733;-71
2023/05/18 05:37:01;;;;;;;7.27;2.23;;;10.20;99.90;;;;;;4987672;28;20328;-72
2023/05/18 05:39:29;;;;;;;6.37;2.17;;;10.20;99.90;;;;;;4987767;28;20534;-72
2023/05/18 05:41:56;;;;;;;5.97;1.97;;;10.30;99.90;;;;;;4987517;28;20305;-71
2023/05/18 05:44:23;;;;;;;2.70;1.70;;;10.30;99.90;;;;;;4987176;28;20217;-71
2023/05/18 05:46:50;;;;;;;4.53;2.00;;;10.40;99.90;;;;;;4988238;28;20214;-71
2023/05/18 05:49:17;;;;;;;9.20;2.17;;;10.50;99.90;;;;;;4987453;28;20746;-73
2023/05/18 05:51:44;;;;;;;4.17;2.20;;;10.50;99.90;;;;;;4987608;28;20653;-73
2023/05/18 05:54:11;;;;;;;7.53;2.00;;;10.50;99.90;;;;;;4987986;28;20297;-73
2023/05/18 05:56:39;;;;;;;6.40;2.80;;;10.60;99.90;;;;;;4987401;28;20266;-73
2023/05/18 05:59:06;;;;;;;4.03;2.07;;;10.60;99.90;;;;;;4986944;28;20402;-73
2023/05/18 06:01:33;;;;;;;6.27;2.63;;;10.70;99.90;;;;;;4987351;28;20586;-71
2023/05/18 06:04:01;;;;;;;5.03;2.07;;;10.70;99.90;;;;;;4987620;28;20297;-71
2023/05/18 06:06:28;;;;;;;6.30;1.90;;;10.70;99.90;;;;;;4987224;28;20676;-71
2023/05/18 06:08:55;;;;;;;4.00;2.23;;;10.80;99.90;;;;;;4986874;28;20277;-71
2023/05/18 06:11:22;;;;;;;6.47;2.10;;;10.80;99.90;;;;;;4980005;28;20220;-71
2023/05/18 06:13:51;;;;;;;4.77;2.10;;;10.90;99.90;;;;;;4987168;28;20345;-71
2023/05/18 06:16:18;;;;;;;7.10;2.13;;;11.00;99.90;;;;;;4987317;28;20602;-71
2023/05/18 06:18:45;;;;;;;8.60;2.33;;;11.00;99.90;;;;;;4987513;28;20289;-71
2023/05/18 06:21:11;;;;;;;8.23;2.47;;;11.10;99.90;;;;;;4987101;28;20253;-71
2023/05/18 06:23:38;;;;;;;9.60;2.97;;;11.10;99.90;;;;;;4987144;28;20210;-71
2023/05/18 06:26:05;;;;;;;4.80;2.30;;;11.20;99.90;;;;;;4987168;28;20304;-71
2023/05/18 06:28:32;;;;;;;8.00;2.30;;;11.20;99.90;;;;;;4986908;28;20820;-71
2023/05/18 06:31:01;;;;;;;5.03;1.90;;;11.30;99.90;;;;;;4986744;28;20788;-71
2023/05/18 06:33:28;;;;;;;7.50;2.23;;;11.30;99.90;;;;;;4986590;28;20265;-71
2023/05/18 06:35:54;;;;;;;7.97;2.43;;;11.40;99.90;;;;;;4987160;28;20293;-71
2023/05/18 06:38:21;;;;;;;8.87;1.83;;;11.40;99.90;;;;;;4986509;28;20261;-71
2023/05/18 06:40:48;;;;;;;8.43;2.50;;;11.40;99.90;;;;;;4986778;28;20282;-72
2023/05/18 06:43:15;;;;;;;4.80;2.07;;;11.40;99.90;;;;;;4986695;28;20202;-71
2023/05/18 06:45:42;;;;;;;8.23;2.73;;;11.50;99.90;;;;;;4986635;28;20292;-71
2023/05/18 06:48:11;;;;;;;7.20;2.07;;;11.50;99.90;;;;;;4987180;28;20658;-72
2023/05/18 06:50:38;;;;;;;6.17;2.37;;;11.50;99.90;;;;;;4986406;28;20801;-72
2023/05/18 06:53:05;;;;;;;8.23;2.50;;;11.40;99.90;;;;;;4986352;28;20229;-72
2023/05/18 06:55:32;;;;;;;4.50;1.80;;;11.50;99.90;;;;;;4986272;28;20207;-72
2023/05/18 06:57:59;;;;;;;5.13;1.90;;;11.50;99.90;;;;;;4986581;28;20331;-71
2023/05/18 07:00:26;;;;;;;5.90;1.87;;;11.60;99.90;;;;;;4986744;28;20217;-71
2023/05/18 07:02:52;;;;;;;5.47;1.80;;;11.60;99.90;;;;;;4967584;28;20768;-71
2023/05/18 07:05:21;;;;;;;4.97;2.07;;;11.70;99.90;;;;;;4985338;28;20198;-72
2023/05/18 07:07:49;;;;;;;7.37;1.80;;;11.70;99.90;;;;;;4986713;28;20245;-71
2023/05/18 07:10:16;;;;;;;9.77;1.90;;;11.80;99.90;;;;;;4980128;28;20298;-72
2023/05/18 07:12:42;;;;;;;4.40;1.70;;;11.80;99.90;;;;;;4984550;28;20202;-71
2023/05/18 07:15:11;;;;;;;5.90;1.80;;;11.90;99.90;;;;;;4986439;28;20300;-71
2023/05/18 07:17:38;;;;;;;7.57;2.30;;;12.00;99.90;;;;;;4986387;28;20237;-71
2023/05/18 07:20:06;;;;;;;3.13;2.00;;;12.00;99.90;;;;;;4986147;28;20224;-72
2023/05/18 07:22:35;;;;;;;5.30;1.73;;;12.10;99.90;;;;;;4985915;28;20285;-72
2023/05/18 07:25:02;;;;;;;11.33;2.20;;;12.10;99.90;;;;;;4987922;28;20222;-72
2023/05/18 07:27:28;;;;;;;9.97;1.93;;;12.10;99.90;;;;;;4990248;28;20206;-72
2023/05/18 07:29:55;;;;;;;10.40;2.10;;;12.20;99.90;;;;;;4990162;28;20293;-72
2023/05/18 07:32:22;;;;;;;5.57;2.20;;;12.20;99.90;;;;;;4989837;28;20217;-72
2023/05/18 07:34:49;;;;;;;6.40;2.07;;;12.20;99.90;;;;;;4990216;28;20210;-72
2023/05/18 07:37:16;;;;;;;5.90;1.80;;;12.30;99.90;;;;;;4990054;28;20226;-72
2023/05/18 07:39:44;;;;;;;6.97;1.70;;;12.30;99.90;;;;;;4989552;28;20733;-72
2023/05/18 07:42:11;;;;;;;6.43;2.10;;;12.40;99.90;;;;;;4990287;28;20297;-72
2023/05/18 07:44:38;;;;;;;5.43;1.50;;;12.40;99.90;;;;;;4989573;28;20210;-72
2023/05/18 07:47:05;;;;;;;5.67;1.90;;;12.50;99.90;;;;;;4979545;28;20202;-73
2023/05/18 07:49:32;;;;;;;4.30;1.90;;;12.50;99.90;;;;;;4989683;28;20300;-73
2023/05/18 07:52:01;;;;;;;5.23;1.93;;;12.50;99.90;;;;;;4985121;28;20692;-72
2023/05/18 07:54:28;;;;;;;4.30;1.90;;;12.50;99.90;;;;;;4970299;28;20241;-72
2023/05/18 07:56:56;;;;;;;10.00;2.10;;;12.60;99.90;;;;;;4970163;28;20329;-72
2023/05/18 07:59:23;;;;;;;4.47;1.77;;;12.70;99.90;;;;;;4974831;28;20229;-72
2023/05/18 08:01:50;;;;;;;4.20;1.77;;;12.80;99.90;;;;;;4989365;28;20773;-72
2023/05/18 08:04:17;;;;;;;3.10;1.67;;;12.80;99.90;;;;;;4989482;28;20696;-72
2023/05/18 08:06:45;;;;;;;5.23;2.07;;;13.00;99.90;;;;;;4989501;28;20246;-72
2023/05/18 08:09:12;;;;;;;3.43;1.47;;;13.00;99.90;;;;;;4989227;28;20242;-72
2023/05/18 08:11:39;;;;;;;5.37;1.83;;;13.10;99.90;;;;;;4989367;28;20316;-72
2023/05/18 08:14:07;;;;;;;4.53;1.93;;;13.20;99.70;;;;;;4989010;28;20745;-72
2023/05/18 08:16:36;;;;;;;6.70;2.27;;;13.30;99.80;;;;;;4989070;28;20301;-72
2023/05/18 08:19:03;;;;;;;2.90;1.50;;;13.30;99.90;;;;;;4989371;28;20209;-72
2023/05/18 08:21:30;;;;;;;5.00;1.80;;;13.40;99.80;;;;;;4988330;28;20325;-72
2023/05/18 08:23:57;;;;;;;9.90;1.90;;;13.50;99.40;;;;;;4988973;28;20277;-72
2023/05/18 08:26:25;;;;;;;5.53;1.80;;;13.60;98.70;;;;;;4988465;28;20217;-72
2023/05/18 08:28:52;;;;;;;2.80;1.77;;;13.60;98.00;;;;;;4988926;28;20214;-72
2023/05/18 08:31:21;;;;;;;4.27;1.57;;;13.50;97.80;;;;;;4988644;28;20293;-72
2023/05/18 08:33:48;;;;;;;7.43;2.37;;;13.50;97.60;;;;;;4988459;28;20206;-71
2023/05/18 08:36:15;;;;;;;2.80;1.50;;;13.30;97.20;;;;;;4981588;28;20234;-70
2023/05/18 08:38:42;;;;;;;2.40;1.27;;;13.30;97.60;;;;;;4974105;28;20820;-71
2023/05/18 08:41:19;;;;;;;2.60;1.33;;;13.30;98.00;;;;;;4974541;28;20207;-71
2023/05/18 08:43:52;;;;;;;5.70;1.57;;;13.30;98.00;;;;;;4975143;28;20195;-71
2023/05/18 08:46:25;;;;;;;6.33;1.90;;;13.40;98.30;;;;;;4982442;28;20728;-71
2023/05/18 08:48:54;;;;;;;3.50;1.33;;;13.40;98.40;;;;;;4982528;28;20290;-72
2023/05/18 08:51:22;;;;;;;10.03;1.83;;;13.40;98.00;;;;;;4982857;28;20273;-72
2023/05/18 08:53:52;;;;;;;23.77;3.27;;;13.40;98.10;;;;;;4982424;28;20217;-71
2023/05/18 08:56:22;;;;;;;5.27;2.00;;;13.40;98.10;;;;;;4985577;28;20206;-71
2023/05/18 08:58:51;;;;;;;3.03;1.57;;;13.50;97.90;;;;;;4978352;28;20340;-72
2023/05/18 09:01:18;;;;;;;6.10;1.70;;;13.60;98.50;;;;;;4973987;28;20282;-72
2023/05/18 09:03:49;;;;;;;98.20;9.43;;;13.70;98.80;;;;;;4983021;28;20285;-71
2023/05/18 09:06:16;;;;;;;5.53;1.83;;;13.80;98.60;;;;;;4981867;28;20195;-71
2023/05/18 09:08:44;;;;;;;8.53;2.60;;;13.90;98.20;;;;;;4988105;28;20610;-71
2023/05/18 09:11:13;;;;;;;38.90;9.53;;;13.90;98.20;;;;;;4979894;28;20234;-70
2023/05/18 09:13:40;;;;;;;3.43;2.07;;;14.00;98.40;;;;;;4977046;28;20217;-70
2023/05/18 09:16:07;;;;;;;4.60;1.70;;;14.10;98.50;;;;;;4976513;28;20226;-71
2023/05/18 09:18:34;;;;;;;5.23;1.70;;;14.20;97.60;;;;;;4977936;28;20242;-70
2023/05/18 09:21:02;;;;;;;3.57;1.80;;;14.30;97.50;;;;;;4980801;28;20206;-71
2023/05/18 09:23:30;;;;;;;4.73;1.90;;;14.50;98.10;;;;;;4986281;28;20297;-70
2023/05/18 09:25:58;;;;;;;3.77;1.80;;;14.70;98.30;;;;;;4986589;28;20214;-70
2023/05/18 09:28:35;;;;;;;71.60;7.37;;;14.80;97.90;;;;;;4985718;28;20301;-71
2023/05/18 09:31:03;;;;;;;9.50;1.93;;;15.00;97.80;;;;;;4985740;28;20244;-70
2023/05/18 09:33:34;;;;;;;5.17;1.90;;;15.10;97.20;;;;;;4985477;28;20301;-71
2023/05/18 09:36:03;;;;;;;6.07;1.90;;;15.00;96.30;;;;;;4985979;28;20198;-70
2023/05/18 09:38:30;;;;;;;50.07;6.10;;;15.00;96.40;;;;;;4985774;28;20238;-70
2023/05/18 09:40:59;;;;;;;12.73;2.20;;;14.90;96.70;;;;;;4982921;28;20207;-71
2023/05/18 09:43:26;;;;;;;4.23;1.50;;;15.10;97.30;;;;;;4975118;28;20214;-70
2023/05/18 09:45:53;;;;;;;3.00;1.73;;;15.20;96.30;;;;;;4974570;28;20259;-70
2023/05/18 09:48:21;;;;;;;6.60;1.60;;;15.40;96.40;;;;;;4969261;28;20735;-70
2023/05/18 09:50:50;;;;;;;5.57;1.77;;;15.50;96.30;;;;;;4985392;28;20230;-71
2023/05/18 09:53:18;;;;;;;4.40;1.60;;;15.40;95.90;;;;;;4983012;28;20210;-70
2023/05/18 09:55:47;;;;;;;4.17;1.67;;;15.40;96.10;;;;;;4984725;28;20202;-70
2023/05/18 09:58:14;;;;;;;3.80;1.63;;;15.30;96.20;;;;;;4985086;28;20249;-70
2023/05/18 10:00:42;;;;;;;6.30;1.80;;;15.30;96.40;;;;;;4985496;28;20624;-70
2023/05/18 10:03:31;;;;;;;5.93;1.60;;;15.20;95.80;;;;;;4985388;28;20217;-71
2023/05/18 10:06:03;;;;;;;8.03;2.00;;;15.00;95.70;;;;;;4984991;28;20572;-71
2023/05/18 10:08:32;;;;;;;9.17;2.10;;;15.00;96.10;;;;;;4984844;28;20674;-70
2023/05/18 10:10:59;;;;;;;3.80;2.10;;;15.10;96.10;;;;;;4973591;28;20322;-71
2023/05/18 10:13:27;;;;;;;7.23;1.60;;;15.00;96.40;;;;;;4965860;28;20753;-71
2023/05/18 10:15:57;;;;;;;4.70;1.93;;;15.00;96.40;;;;;;4968446;28;20285;-71
2023/05/18 10:18:25;;;;;;;7.90;1.97;;;15.10;96.60;;;;;;4984929;28;20230;-71
2023/05/18 10:20:54;;;;;;;6.50;2.10;;;15.20;96.60;;;;;;4985188;28;20218;-70
2023/05/18 10:23:22;;;;;;;5.97;1.83;;;15.20;96.50;;;;;;4984808;28;20209;-71
2023/05/18 10:25:51;;;;;;;2.80;1.40;;;15.20;96.10;;;;;;4984953;28;20677;-71
2023/05/18 10:28:24;;;;;;;4.40;1.60;;;15.10;95.90;;;;;;4984588;28;20855;-71
2023/05/18 10:30:53;;;;;;;5.17;1.50;;;15.10;96.00;;;;;;4983949;28;20214;-71
2023/05/18 10:33:22;;;;;;;4.07;1.50;;;15.10;96.10;;;;;;4970373;28;20215;-71
2023/05/18 10:35:49;;;;;;;6.90;1.80;;;15.10;96.10;;;;;;4966551;28;20441;-71
2023/05/18 10:38:19;;;;;;;3.17;1.67;;;15.30;96.00;;;;;;4966914;28;20293;-71
2023/05/18 10:40:48;;;;;;;9.27;1.90;;;15.40;95.30;;;;;;4971154;28;20211;-71
2023/05/18 10:43:19;;;;;;;9.30;2.30;;;15.60;95.70;;;;;;4986149;28;20538;-71
2023/05/18 10:45:48;;;;;;;2.47;1.60;;;15.70;94.80;;;;;;4986188;28;20245;-71
2023/05/18 10:48:16;;;;;;;3.20;1.70;;;15.90;95.70;;;;;;4986190;28;20198;-71
2023/05/18 10:50:44;;;;;;;6.80;1.73;;;16.10;95.70;;;;;;4986401;28;20222;-71
2023/05/18 10:53:12;;;;;;;4.87;1.47;;;16.20;94.70;;;;;;4986482;28;20206;-71
2023/05/18 10:55:39;;;;;;;4.93;1.57;;;16.40;94.70;;;;;;4986316;28;20300;-71
2023/05/18 10:58:12;;;;;;;4.53;1.63;;;16.50;94.60;;;;;;4986372;28;20320;-71
2023/05/18 11:00:43;;;;;;;8.33;1.80;;;16.60;94.10;;;;;;4989120;28;20226;-71
2023/05/18 11:03:13;;;;;;;4.30;1.70;;;16.70;93.80;;;;;;4990907;28;20241;-71
2023/05/18 11:05:40;;;;;;;3.23;1.50;;;16.90;93.90;;;;;;4989932;28;20202;-71
2023/05/18 11:08:07;;;;;;;4.50;1.90;;;17.00;93.30;;;;;;4989688;28;20241;-71
2023/05/18 11:10:39;;;;;;;3.63;1.60;;;17.10;93.40;;;;;;4981005;28;20243;-71
2023/05/18 11:13:06;;;;;;;2.80;1.57;;;17.30;93.60;;;;;;4970817;28;20595;-70
2023/05/18 11:16:04;;;;;;;3.03;1.70;;;17.60;93.70;;;;;;4989014;28;20213;-70
2023/05/18 11:18:37;;;;;;;2.87;1.70;;;17.90;94.00;;;;;;4990243;28;20253;-71
2023/05/18 11:21:18;;;;;;;4.33;1.93;;;18.10;93.50;;;;;;4990394;28;20217;-71
2023/05/18 11:24:28;;;;;;;7.00;1.90;;;18.30;93.10;;;;;;4988817;28;20629;-71
2023/05/18 11:26:57;;;;;;;5.03;1.40;;;18.50;92.70;;;;;;4978465;28;20325;-70
2023/05/18 11:29:30;;;;;;;5.27;1.97;;;18.60;92.60;;;;;;4988245;28;20297;-70
2023/05/18 11:31:58;;;;;;;2.73;1.73;;;18.60;91.50;;;;;;4988678;28;20566;-71
2023/05/18 11:34:40;;;;;;;2.37;1.77;;;18.80;92.30;;;;;;4989234;28;20289;-70
2023/05/18 11:37:08;;;;;;;2.57;1.60;;;18.90;91.70;;;;;;4988585;28;20212;-72
2023/05/18 11:39:36;;;;;;;4.27;1.80;;;19.00;91.40;;;;;;4988760;28;20408;-71
2023/05/18 11:42:06;;;;;;;3.63;1.70;;;19.10;90.60;;;;;;4990184;28;20216;-72
2023/05/18 11:44:33;;;;;;;3.30;1.50;;;19.00;90.30;;;;;;4989767;28;20195;-72
2023/05/18 11:47:03;;;;;;;4.93;1.80;;;18.80;90.40;;;;;;4990108;28;20221;-71
2023/05/18 11:49:32;;;;;;;3.73;1.67;;;18.60;90.50;;;;;;4989687;28;20273;-72
2023/05/18 11:52:07;;;;;;;20.30;2.93;;;18.40;91.00;;;;;;4989111;28;20222;-71
2023/05/18 11:54:39;;;;;;;5.97;2.00;;;18.20;90.00;;;;;;4989268;28;20285;-72
2023/05/18 11:57:06;;;;;;;6.60;1.93;;;18.30;90.80;;;;;;4982926;28;20278;-71
2023/05/18 11:59:36;;;;;;;2.53;1.50;;;18.40;90.30;;;;;;4969580;28;20318;-71
2023/05/18 12:02:05;;;;;;;4.53;1.70;;;18.40;89.90;;;;;;4975790;28;20301;-71
2023/05/18 12:04:32;;;;;;;5.20;1.73;;;18.60;90.20;;;;;;4989087;28;20210;-71
2023/05/18 12:07:00;;;;;;;3.50;1.77;;;18.60;89.00;;;;;;4988961;28;20894;-71
2023/05/18 12:09:30;;;;;;;3.80;1.40;;;18.50;88.40;;;;;;4988732;28;20241;-72
2023/05/18 12:11:57;;;;;;;2.07;1.30;;;18.50;90.30;;;;;;4969869;28;20400;-72
2023/05/18 12:14:25;;;;;;;19.87;3.03;;;18.60;90.40;;;;;;4975400;28;20640;-71
2023/05/18 12:16:53;;;;;;;8.87;2.00;;;18.60;90.20;;;;;;4989150;28;20300;-71
2023/05/18 12:19:22;;;;;;;8.60;2.10;;;18.60;90.30;;;;;;4988770;28;20748;-72
2023/05/18 12:21:49;;;;;;;8.70;2.00;;;18.60;90.40;;;;;;4989025;28;20210;-71
2023/05/18 12:24:16;;;;;;;5.43;1.90;;;18.70;90.80;;;;;;4989041;28;20210;-71
2023/05/18 12:26:45;;;;;;;5.17;1.80;;;18.80;91.20;;;;;;4988800;28;20229;-72
2023/05/18 12:29:18;;;;;;;4.40;1.70;;;19.00;90.60;;;;;;4987104;28;20210;-71
2023/05/18 12:31:46;;;;;;;3.57;1.90;;;19.10;90.10;;;;;;4971645;28;20272;-71
2023/05/18 12:34:13;;;;;;;6.50;2.00;;;19.30;89.00;;;;;;4988243;28;20846;-71
2023/05/18 12:36:52;;;;;;;4.93;1.80;;;19.40;88.00;;;;;;4988495;28;20566;-71
2023/05/18 12:39:19;;;;;;;10.37;1.90;;;19.40;86.70;;;;;;4988208;28;20229;-71
2023/05/18 12:41:46;;;;;;;5.33;1.70;;;19.30;87.20;;;;;;4969593;28;20215;-71
2023/05/18 12:44:13;;;;;;;7.80;1.77;;;19.50;88.20;;;;;;4968814;28;20654;-71
2023/05/18 12:46:42;;;;;;;2.10;1.40;;;19.70;88.60;;;;;;4976095;28;20297;-71
2023/05/18 12:49:10;;;;;;;3.53;2.13;;;20.00;89.70;;;;;;4988507;28;20210;-73
2023/05/18 12:51:39;;;;;;;4.18;1.73;;;20.10;88.00;;;;;;4988084;28;20590;-71
2023/05/18 12:54:08;;;;;;;4.88;1.80;;;20.30;86.10;;;;;;4987936;28;20293;-71
2023/05/18 12:56:58;;;;;;;8.85;2.00;;;20.40;86.60;;;;;;4988047;28;20204;-71